sensor_id;sensor_type;location;lat;lon;timestamp;P1;P2;P0
50866;PMS7003;36839;51.946;21.002;2023-10-09T00:02:24;2.00;1.00;1.00
50866;PMS7003;36839;51.946;21.002;2023-10-09T00:04:52;6.00;4.00;3.00
50866;PMS7003;36839;51.946;21.002;2023-10-09T00:07:18;5.00;3.50;3.00
50866;PMS7003;36839;51.946;21.002;2023-10-09T00:09:46;3.00;3.00;2.00
50866;PMS7003;36839;51.946;21.002;2023-10-09T00:12:15;6.00;4.00;4.00
50866;PMS7003;36839;51.946;21.002;2023-10-09T00:14:48;3.00;3.00;2.00
50866;PMS7003;36839;51.946;21.002;2023-10-09T00:17:27;3.50;3.50;2.50
50866;PMS7003;36839;51.946;21.002;2023-10-09T00:19:57;7.00;6.00;4.00
50866;PMS7003;36839;51.946;21.002;2023-10-09T00:22:26;4.00;4.00;3.00
50866;PMS7003;36839;51.946;21.002;2023-10-09T00:24:53;6.50;4.00;3.00
50866;PMS7003;36839;51.946;21.002;2023-10-09T00:27:39;3.00;3.00;2.00
50866;PMS7003;36839;51.946;21.002;2023-10-09T00:30:17;7.00;4.00;3.50
50866;PMS7003;36839;51.946;21.002;2023-10-09T00:32:44;7.00;4.00;3.00
50866;PMS7003;36839;51.946;21.002;2023-10-09T00:35:35;8.00;6.00;6.00
50866;PMS7003;36839;51.946;21.002;2023-10-09T00:38:03;6.00;4.00;3.00
50866;PMS7003;36839;51.946;21.002;2023-10-09T00:40:52;4.00;4.00;3.00
50866;PMS7003;36839;51.946;21.002;2023-10-09T00:43:39;4.00;4.00;3.00
50866;PMS7003;36839;51.946;21.002;2023-10-09T00:46:09;1.00;1.00;1.00
50866;PMS7003;36839;51.946;21.002;2023-10-09T00:48:55;0.00;0.00;0.00
50866;PMS7003;36839;51.946;21.002;2023-10-09T00:51:26;0.00;0.00;0.00
50866;PMS7003;36839;51.946;21.002;2023-10-09T00:53:55;8.00;5.00;2.00
50866;PMS7003;36839;51.946;21.002;2023-10-09T00:56:33;4.00;4.00;2.00
50866;PMS7003;36839;51.946;21.002;2023-10-09T00:59:14;6.50;3.50;2.50
50866;PMS7003;36839;51.946;21.002;2023-10-09T01:01:42;6.50;4.00;3.00
50866;PMS7003;36839;51.946;21.002;2023-10-09T01:04:30;6.00;4.00;4.00
50866;PMS7003;36839;51.946;21.002;2023-10-09T01:07:03;7.00;4.00;3.00
50866;PMS7003;36839;51.946;21.002;2023-10-09T01:09:51;3.00;3.00;2.00
50866;PMS7003;36839;51.946;21.002;2023-10-09T01:12:21;5.00;5.00;3.50
50866;PMS7003;36839;51.946;21.002;2023-10-09T01:14:48;0.00;0.00;0.00
50866;PMS7003;36839;51.946;21.002;2023-10-09T01:17:22;7.00;4.50;2.50
50866;PMS7003;36839;51.946;21.002;2023-10-09T01:20:12;7.00;6.00;3.00
50866;PMS7003;36839;51.946;21.002;2023-10-09T01:22:43;6.00;4.00;2.50
50866;PMS7003;36839;51.946;21.002;2023-10-09T01:25:13;6.00;2.00;1.00
50866;PMS7003;36839;51.946;21.002;2023-10-09T01:27:40;6.00;6.00;3.00
50866;PMS7003;36839;51.946;21.002;2023-10-09T01:30:13;4.00;4.00;2.00
50866;PMS7003;36839;51.946;21.002;2023-10-09T01:32:40;4.50;3.00;2.50
50866;PMS7003;36839;51.946;21.002;2023-10-09T01:35:09;4.00;4.00;3.00
50866;PMS7003;36839;51.946;21.002;2023-10-09T01:37:46;0.00;0.00;0.00
50866;PMS7003;36839;51.946;21.002;2023-10-09T01:40:19;0.00;0.00;0.00
50866;PMS7003;36839;51.946;21.002;2023-10-09T01:43:04;5.50;2.50;2.50
50866;PMS7003;36839;51.946;21.002;2023-10-09T01:45:31;8.00;6.00;4.50
50866;PMS7003;36839;51.946;21.002;2023-10-09T01:48:09;0.00;0.00;0.00
50866;PMS7003;36839;51.946;21.002;2023-10-09T01:50:38;0.00;0.00;0.00
50866;PMS7003;36839;51.946;21.002;2023-10-09T01:53:08;0.00;0.00;0.00
50866;PMS7003;36839;51.946;21.002;2023-10-09T01:55:36;0.00;0.00;0.00
50866;PMS7003;36839;51.946;21.002;2023-10-09T01:58:07;0.00;0.00;0.00
50866;PMS7003;36839;51.946;21.002;2023-10-09T02:00:50;3.00;3.00;2.00
50866;PMS7003;36839;51.946;21.002;2023-10-09T02:03:22;6.00;3.00;2.00
50866;PMS7003;36839;51.946;21.002;2023-10-09T02:05:55;9.00;7.00;4.00
50866;PMS7003;36839;51.946;21.002;2023-10-09T02:08:29;6.00;5.00;3.00
50866;PMS7003;36839;51.946;21.002;2023-10-09T02:11:03;8.00;6.33;4.67
50866;PMS7003;36839;51.946;21.002;2023-10-09T02:13:29;6.00;3.00;2.50
50866;PMS7003;36839;51.946;21.002;2023-10-09T02:15:58;7.00;4.50;3.00
50866;PMS7003;36839;51.946;21.002;2023-10-09T02:18:41;0.00;0.00;0.00
50866;PMS7003;36839;51.946;21.002;2023-10-09T02:21:22;0.00;0.00;0.00
50866;PMS7003;36839;51.946;21.002;2023-10-09T02:24:15;5.33;4.67;3.00
50866;PMS7003;36839;51.946;21.002;2023-10-09T02:27:02;7.00;4.00;3.00
50866;PMS7003;36839;51.946;21.002;2023-10-09T02:29:33;7.00;3.00;3.00
50866;PMS7003;36839;51.946;21.002;2023-10-09T02:32:01;5.50;3.50;3.00
50866;PMS7003;36839;51.946;21.002;2023-10-09T02:34:39;6.00;3.00;2.00
50866;PMS7003;36839;51.946;21.002;2023-10-09T02:37:07;6.00;4.00;3.00
50866;PMS7003;36839;51.946;21.002;2023-10-09T02:39:39;6.00;6.00;4.50
50866;PMS7003;36839;51.946;21.002;2023-10-09T02:42:14;5.00;3.00;3.00
50866;PMS7003;36839;51.946;21.002;2023-10-09T02:44:41;4.00;4.00;2.00
50866;PMS7003;36839;51.946;21.002;2023-10-09T02:47:16;8.00;5.00;3.50
50866;PMS7003;36839;51.946;21.002;2023-10-09T02:50:05;7.00;6.00;4.00
50866;PMS7003;36839;51.946;21.002;2023-10-09T02:52:35;3.00;3.00;3.00
50866;PMS7003;36839;51.946;21.002;2023-10-09T02:55:07;8.00;6.00;4.00
50866;PMS7003;36839;51.946;21.002;2023-10-09T02:57:49;7.50;4.00;3.00
50866;PMS7003;36839;51.946;21.002;2023-10-09T03:00:19;5.00;4.00;3.00
50866;PMS7003;36839;51.946;21.002;2023-10-09T03:02:57;3.00;3.00;2.50
50866;PMS7003;36839;51.946;21.002;2023-10-09T03:05:25;7.00;4.00;3.00
50866;PMS7003;36839;51.946;21.002;2023-10-09T03:07:58;7.00;3.00;3.00
50866;PMS7003;36839;51.946;21.002;2023-10-09T03:10:26;9.00;4.00;4.00
50866;PMS7003;36839;51.946;21.002;2023-10-09T03:12:53;6.00;3.00;2.00
50866;PMS7003;36839;51.946;21.002;2023-10-09T03:15:21;2.50;2.50;2.00
50866;PMS7003;36839;51.946;21.002;2023-10-09T03:17:48;7.67;4.00;3.00
50866;PMS7003;36839;51.946;21.002;2023-10-09T03:20:15;4.00;2.00;1.00
50866;PMS7003;36839;51.946;21.002;2023-10-09T03:22:46;9.00;6.00;4.00
50866;PMS7003;36839;51.946;21.002;2023-10-09T03:25:14;4.00;4.00;3.50
50866;PMS7003;36839;51.946;21.002;2023-10-09T03:27:43;5.00;5.00;3.00
50866;PMS7003;36839;51.946;21.002;2023-10-09T03:30:14;8.00;7.00;6.00
50866;PMS7003;36839;51.946;21.002;2023-10-09T03:32:49;7.67;6.00;4.00
50866;PMS7003;36839;51.946;21.002;2023-10-09T03:35:18;4.00;4.00;3.00
50866;PMS7003;36839;51.946;21.002;2023-10-09T03:37:51;6.00;6.00;4.00
50866;PMS7003;36839;51.946;21.002;2023-10-09T03:40:23;7.00;4.00;3.00
50866;PMS7003;36839;51.946;21.002;2023-10-09T03:42:51;6.00;4.00;3.00
50866;PMS7003;36839;51.946;21.002;2023-10-09T03:45:20;3.50;3.00;2.50
50866;PMS7003;36839;51.946;21.002;2023-10-09T03:47:55;6.00;6.00;3.00
50866;PMS7003;36839;51.946;21.002;2023-10-09T03:50:35;2.00;2.00;2.00
50866;PMS7003;36839;51.946;21.002;2023-10-09T03:53:02;6.00;4.00;3.50
50866;PMS7003;36839;51.946;21.002;2023-10-09T03:55:34;7.50;6.00;4.00
50866;PMS7003;36839;51.946;21.002;2023-10-09T03:58:15;7.50;4.00;3.00
50866;PMS7003;36839;51.946;21.002;2023-10-09T04:00:45;12.00;8.00;7.00
50866;PMS7003;36839;51.946;21.002;2023-10-09T04:03:15;0.00;0.00;0.00
50866;PMS7003;36839;51.946;21.002;2023-10-09T04:05:42;7.50;4.00;3.50
50866;PMS7003;36839;51.946;21.002;2023-10-09T04:08:13;7.00;4.00;3.00
50866;PMS7003;36839;51.946;21.002;2023-10-09T04:10:42;9.00;7.50;4.00
50866;PMS7003;36839;51.946;21.002;2023-10-09T04:13:10;7.00;7.00;5.50
50866;PMS7003;36839;51.946;21.002;2023-10-09T04:15:50;9.50;7.00;5.50
50866;PMS7003;36839;51.946;21.002;2023-10-09T04:18:20;8.00;7.00;5.50
50866;PMS7003;36839;51.946;21.002;2023-10-09T04:20:47;12.00;7.00;4.00
50866;PMS7003;36839;51.946;21.002;2023-10-09T04:23:33;8.00;8.00;5.00
50866;PMS7003;36839;51.946;21.002;2023-10-09T04:26:23;5.50;5.50;4.00
50866;PMS7003;36839;51.946;21.002;2023-10-09T04:28:56;7.00;7.00;4.00
50866;PMS7003;36839;51.946;21.002;2023-10-09T04:31:22;9.00;5.00;4.00
50866;PMS7003;36839;51.946;21.002;2023-10-09T04:33:58;4.00;4.00;4.00
50866;PMS7003;36839;51.946;21.002;2023-10-09T04:36:46;8.00;5.00;4.00
50866;PMS7003;36839;51.946;21.002;2023-10-09T04:39:16;8.00;8.00;6.00
50866;PMS7003;36839;51.946;21.002;2023-10-09T04:42:01;9.00;4.00;3.00
50866;PMS7003;36839;51.946;21.002;2023-10-09T04:44:47;6.00;5.00;4.00
50866;PMS7003;36839;51.946;21.002;2023-10-09T04:47:30;7.00;7.00;4.00
50866;PMS7003;36839;51.946;21.002;2023-10-09T04:50:05;6.00;6.00;5.00
50866;PMS7003;36839;51.946;21.002;2023-10-09T04:52:45;9.00;5.00;3.00
50866;PMS7003;36839;51.946;21.002;2023-10-09T04:55:20;10.00;9.00;5.00
50866;PMS7003;36839;51.946;21.002;2023-10-09T04:57:51;11.00;9.50;7.00
50866;PMS7003;36839;51.946;21.002;2023-10-09T05:00:30;7.00;7.00;6.50
50866;PMS7003;36839;51.946;21.002;2023-10-09T05:02:58;8.00;5.50;4.50
50866;PMS7003;36839;51.946;21.002;2023-10-09T05:05:51;7.00;4.33;4.00
50866;PMS7003;36839;51.946;21.002;2023-10-09T05:08:41;8.00;5.00;3.00
50866;PMS7003;36839;51.946;21.002;2023-10-09T05:11:12;6.00;6.00;4.00
50866;PMS7003;36839;51.946;21.002;2023-10-09T05:14:01;8.50;5.50;4.50
50866;PMS7003;36839;51.946;21.002;2023-10-09T05:16:51;4.00;4.00;4.00
50866;PMS7003;36839;51.946;21.002;2023-10-09T05:19:27;7.00;4.00;2.00
50866;PMS7003;36839;51.946;21.002;2023-10-09T05:22:11;3.00;3.00;3.00
50866;PMS7003;36839;51.946;21.002;2023-10-09T05:24:57;4.00;3.00;2.00
50866;PMS7003;36839;51.946;21.002;2023-10-09T05:27:27;9.50;5.00;3.50
50866;PMS7003;36839;51.946;21.002;2023-10-09T05:30:16;8.00;4.00;3.00
50866;PMS7003;36839;51.946;21.002;2023-10-09T05:32:56;7.00;6.00;4.00
50866;PMS7003;36839;51.946;21.002;2023-10-09T05:35:45;2.50;2.50;1.50
50866;PMS7003;36839;51.946;21.002;2023-10-09T05:38:32;6.00;4.50;4.00
50866;PMS7003;36839;51.946;21.002;2023-10-09T05:41:02;9.00;5.00;4.00
50866;PMS7003;36839;51.946;21.002;2023-10-09T05:43:49;7.00;6.00;5.00
50866;PMS7003;36839;51.946;21.002;2023-10-09T05:46:34;12.00;8.00;5.00
50866;PMS7003;36839;51.946;21.002;2023-10-09T05:49:14;8.00;6.00;4.00
50866;PMS7003;36839;51.946;21.002;2023-10-09T05:51:50;12.00;9.00;5.00
50866;PMS7003;36839;51.946;21.002;2023-10-09T05:54:40;7.00;6.00;4.00
50866;PMS7003;36839;51.946;21.002;2023-10-09T05:57:25;9.00;7.00;5.00
50866;PMS7003;36839;51.946;21.002;2023-10-09T06:00:11;9.00;6.50;5.00
50866;PMS7003;36839;51.946;21.002;2023-10-09T06:02:57;11.00;5.00;3.00
50866;PMS7003;36839;51.946;21.002;2023-10-09T06:05:48;11.00;9.00;6.00
50866;PMS7003;36839;51.946;21.002;2023-10-09T06:08:28;13.33;7.00;6.00
50866;PMS7003;36839;51.946;21.002;2023-10-09T06:11:09;10.00;9.00;6.00
50866;PMS7003;36839;51.946;21.002;2023-10-09T06:13:57;10.00;8.00;6.00
50866;PMS7003;36839;51.946;21.002;2023-10-09T06:16:41;10.00;9.00;6.00
50866;PMS7003;36839;51.946;21.002;2023-10-09T06:19:11;11.00;10.00;9.00
50866;PMS7003;36839;51.946;21.002;2023-10-09T06:21:39;13.33;7.00;6.00
50866;PMS7003;36839;51.946;21.002;2023-10-09T06:24:24;14.50;8.00;6.00
50866;PMS7003;36839;51.946;21.002;2023-10-09T06:27:03;14.00;9.50;7.00
50866;PMS7003;36839;51.946;21.002;2023-10-09T06:29:39;12.00;9.50;6.00
50866;PMS7003;36839;51.946;21.002;2023-10-09T06:32:16;11.00;10.50;6.50
50866;PMS7003;36839;51.946;21.002;2023-10-09T06:34:46;8.00;6.00;5.00
50866;PMS7003;36839;51.946;21.002;2023-10-09T06:37:21;9.00;9.00;7.00
50866;PMS7003;36839;51.946;21.002;2023-10-09T06:39:56;9.00;7.00;7.00
50866;PMS7003;36839;51.946;21.002;2023-10-09T06:42:23;12.00;12.00;7.00
50866;PMS7003;36839;51.946;21.002;2023-10-09T06:45:01;12.33;8.67;7.00
50866;PMS7003;36839;51.946;21.002;2023-10-09T06:47:46;13.50;11.00;8.00
50866;PMS7003;36839;51.946;21.002;2023-10-09T06:50:22;14.00;11.50;9.00
50866;PMS7003;36839;51.946;21.002;2023-10-09T06:53:07;16.00;12.00;9.67
50866;PMS7003;36839;51.946;21.002;2023-10-09T06:55:37;14.50;12.00;8.00
50866;PMS7003;36839;51.946;21.002;2023-10-09T06:58:40;11.50;11.00;7.00
50866;PMS7003;36839;51.946;21.002;2023-10-09T07:01:14;15.00;12.00;8.00
50866;PMS7003;36839;51.946;21.002;2023-10-09T07:03:55;15.50;11.50;7.50
50866;PMS7003;36839;51.946;21.002;2023-10-09T07:06:49;13.50;11.00;8.00
50866;PMS7003;36839;51.946;21.002;2023-10-09T07:09:17;14.50;13.00;8.50
50866;PMS7003;36839;51.946;21.002;2023-10-09T07:11:50;12.00;10.00;7.00
50866;PMS7003;36839;51.946;21.002;2023-10-09T07:14:30;13.00;12.00;9.00
50866;PMS7003;36839;51.946;21.002;2023-10-09T07:17:00;13.50;12.00;7.50
50866;PMS7003;36839;51.946;21.002;2023-10-09T07:19:42;12.00;10.00;7.00
50866;PMS7003;36839;51.946;21.002;2023-10-09T07:22:13;17.00;13.00;9.50
50866;PMS7003;36839;51.946;21.002;2023-10-09T07:24:47;11.50;9.50;8.50
50866;PMS7003;36839;51.946;21.002;2023-10-09T07:27:30;11.50;11.50;9.00
50866;PMS7003;36839;51.946;21.002;2023-10-09T07:30:13;11.50;11.50;9.50
50866;PMS7003;36839;51.946;21.002;2023-10-09T07:33:02;12.00;11.00;8.00
50866;PMS7003;36839;51.946;21.002;2023-10-09T07:35:37;14.00;10.00;7.00
50866;PMS7003;36839;51.946;21.002;2023-10-09T07:40:48;15.00;12.00;8.00
50866;PMS7003;36839;51.946;21.002;2023-10-09T07:43:26;9.50;9.50;7.00
50866;PMS7003;36839;51.946;21.002;2023-10-09T07:46:14;15.00;13.00;9.00
50866;PMS7003;36839;51.946;21.002;2023-10-09T07:49:18;14.00;12.00;8.00
50866;PMS7003;36839;51.946;21.002;2023-10-09T07:51:56;13.00;13.00;9.00
50866;PMS7003;36839;51.946;21.002;2023-10-09T07:54:25;18.00;12.00;10.00
50866;PMS7003;36839;51.946;21.002;2023-10-09T07:57:05;10.00;9.50;7.00
50866;PMS7003;36839;51.946;21.002;2023-10-09T07:59:42;13.00;13.00;9.00
50866;PMS7003;36839;51.946;21.002;2023-10-09T08:02:29;13.50;13.50;9.50
50866;PMS7003;36839;51.946;21.002;2023-10-09T08:04:59;18.50;15.50;11.00
50866;PMS7003;36839;51.946;21.002;2023-10-09T08:07:45;15.00;14.00;10.00
50866;PMS7003;36839;51.946;21.002;2023-10-09T08:10:38;14.00;9.50;8.50
50866;PMS7003;36839;51.946;21.002;2023-10-09T08:13:24;15.50;12.00;8.50
50866;PMS7003;36839;51.946;21.002;2023-10-09T08:16:10;18.00;14.00;10.00
50866;PMS7003;36839;51.946;21.002;2023-10-09T08:18:46;16.00;14.00;9.00
50866;PMS7003;36839;51.946;21.002;2023-10-09T08:21:12;14.00;12.00;10.00
50866;PMS7003;36839;51.946;21.002;2023-10-09T08:23:39;13.50;11.00;9.00
50866;PMS7003;36839;51.946;21.002;2023-10-09T08:26:16;17.50;12.00;10.00
50866;PMS7003;36839;51.946;21.002;2023-10-09T08:29:09;11.50;11.50;10.00
50866;PMS7003;36839;51.946;21.002;2023-10-09T08:31:44;18.00;14.00;11.00
50866;PMS7003;36839;51.946;21.002;2023-10-09T08:34:14;15.00;15.00;9.00
50866;PMS7003;36839;51.946;21.002;2023-10-09T08:36:54;10.00;10.00;7.00
50866;PMS7003;36839;51.946;21.002;2023-10-09T08:39:21;13.00;10.00;8.00
50866;PMS7003;36839;51.946;21.002;2023-10-09T08:41:56;11.50;11.50;8.50
50866;PMS7003;36839;51.946;21.002;2023-10-09T08:44:28;13.00;11.50;9.00
50866;PMS7003;36839;51.946;21.002;2023-10-09T08:46:58;13.00;12.00;8.00
50866;PMS7003;36839;51.946;21.002;2023-10-09T08:49:25;11.00;11.00;8.00
50866;PMS7003;36839;51.946;21.002;2023-10-09T08:51:54;9.00;9.00;8.00
50866;PMS7003;36839;51.946;21.002;2023-10-09T08:54:26;8.50;7.50;6.50
50866;PMS7003;36839;51.946;21.002;2023-10-09T08:56:52;10.00;9.00;6.00
50866;PMS7003;36839;51.946;21.002;2023-10-09T08:59:24;11.00;9.33;6.67
50866;PMS7003;36839;51.946;21.002;2023-10-09T09:01:54;10.00;10.00;8.00
50866;PMS7003;36839;51.946;21.002;2023-10-09T09:08:25;6.00;5.00;4.00
50866;PMS7003;36839;51.946;21.002;2023-10-09T09:10:59;10.00;7.00;5.00
50866;PMS7003;36839;51.946;21.002;2023-10-09T09:13:41;7.00;7.00;6.00
50866;PMS7003;36839;51.946;21.002;2023-10-09T09:16:15;10.50;9.00;7.00
50866;PMS7003;36839;51.946;21.002;2023-10-09T09:18:52;12.00;9.00;7.00
50866;PMS7003;36839;51.946;21.002;2023-10-09T09:21:50;10.00;8.00;5.00
50866;PMS7003;36839;51.946;21.002;2023-10-09T09:24:22;7.50;7.50;5.50
50866;PMS7003;36839;51.946;21.002;2023-10-09T09:27:00;7.50;7.50;6.00
50866;PMS7003;36839;51.946;21.002;2023-10-09T09:29:46;9.50;8.00;7.00
50866;PMS7003;36839;51.946;21.002;2023-10-09T09:32:31;10.50;7.00;6.00
50866;PMS7003;36839;51.946;21.002;2023-10-09T09:35:02;8.00;7.00;6.00
50866;PMS7003;36839;51.946;21.002;2023-10-09T09:37:33;7.00;6.00;5.00
50866;PMS7003;36839;51.946;21.002;2023-10-09T09:40:09;7.00;6.00;4.00
50866;PMS7003;36839;51.946;21.002;2023-10-09T09:42:58;6.00;6.00;5.00
50866;PMS7003;36839;51.946;21.002;2023-10-09T09:45:46;11.00;5.00;4.00
50866;PMS7003;36839;51.946;21.002;2023-10-09T09:48:16;7.00;7.00;5.00
50866;PMS7003;36839;51.946;21.002;2023-10-09T09:50:46;7.00;7.00;6.00
50866;PMS7003;36839;51.946;21.002;2023-10-09T09:53:14;9.00;7.00;5.00
50866;PMS7003;36839;51.946;21.002;2023-10-09T09:55:51;6.00;6.00;5.00
50866;PMS7003;36839;51.946;21.002;2023-10-09T09:58:22;10.50;6.00;6.00
50866;PMS7003;36839;51.946;21.002;2023-10-09T10:00:57;7.00;7.00;5.00
50866;PMS7003;36839;51.946;21.002;2023-10-09T10:04:03;5.00;4.00;3.00
50866;PMS7003;36839;51.946;21.002;2023-10-09T10:06:41;10.00;7.50;5.50
50866;PMS7003;36839;51.946;21.002;2023-10-09T10:09:33;9.00;7.00;5.00
50866;PMS7003;36839;51.946;21.002;2023-10-09T10:12:08;6.00;6.00;5.00
50866;PMS7003;36839;51.946;21.002;2023-10-09T10:17:16;7.00;7.00;5.50
50866;PMS7003;36839;51.946;21.002;2023-10-09T10:22:44;9.00;9.00;6.50
50866;PMS7003;36839;51.946;21.002;2023-10-09T10:30:57;16.50;10.00;6.50
50866;PMS7003;36839;51.946;21.002;2023-10-09T10:33:27;12.00;10.00;8.00
50866;PMS7003;36839;51.946;21.002;2023-10-09T10:36:22;10.50;10.50;8.00
50866;PMS7003;36839;51.946;21.002;2023-10-09T10:39:05;10.00;8.00;6.00
50866;PMS7003;36839;51.946;21.002;2023-10-09T10:41:54;9.00;9.00;7.00
50866;PMS7003;36839;51.946;21.002;2023-10-09T10:44:26;11.50;8.00;6.00
50866;PMS7003;36839;51.946;21.002;2023-10-09T10:47:12;12.00;9.50;7.00
50866;PMS7003;36839;51.946;21.002;2023-10-09T10:49:58;9.00;8.00;6.50
50866;PMS7003;36839;51.946;21.002;2023-10-09T10:52:47;12.00;11.00;9.00
50866;PMS7003;36839;51.946;21.002;2023-10-09T10:55:26;13.00;9.00;7.50
50866;PMS7003;36839;51.946;21.002;2023-10-09T10:58:03;8.00;7.00;6.00
50866;PMS7003;36839;51.946;21.002;2023-10-09T11:00:55;10.00;10.00;7.00
50866;PMS7003;36839;51.946;21.002;2023-10-09T11:03:23;9.00;9.00;7.00
50866;PMS7003;36839;51.946;21.002;2023-10-09T11:06:04;9.00;9.00;7.00
50866;PMS7003;36839;51.946;21.002;2023-10-09T11:08:45;9.50;8.50;7.00
50866;PMS7003;36839;51.946;21.002;2023-10-09T11:11:24;11.00;10.00;7.00
50866;PMS7003;36839;51.946;21.002;2023-10-09T11:14:11;10.50;9.50;7.50
50866;PMS7003;36839;51.946;21.002;2023-10-09T11:16:43;11.33;10.00;7.00
50866;PMS7003;36839;51.946;21.002;2023-10-09T11:19:19;10.00;7.00;6.50
50866;PMS7003;36839;51.946;21.002;2023-10-09T11:21:53;12.00;10.00;8.00
50866;PMS7003;36839;51.946;21.002;2023-10-09T11:24:35;14.00;11.00;8.00
50866;PMS7003;36839;51.946;21.002;2023-10-09T11:27:05;12.00;7.00;4.00
50866;PMS7003;36839;51.946;21.002;2023-10-09T11:29:47;7.00;7.00;5.00
50866;PMS7003;36839;51.946;21.002;2023-10-09T11:32:16;13.50;11.00;8.00
50866;PMS7003;36839;51.946;21.002;2023-10-09T11:35:10;10.00;8.00;7.00
50866;PMS7003;36839;51.946;21.002;2023-10-09T11:37:56;13.00;11.00;8.00
50866;PMS7003;36839;51.946;21.002;2023-10-09T11:40:27;9.00;9.00;7.00
50866;PMS7003;36839;51.946;21.002;2023-10-09T11:43:01;11.50;11.00;9.00
50866;PMS7003;36839;51.946;21.002;2023-10-09T11:45:30;13.50;12.00;9.00
50866;PMS7003;36839;51.946;21.002;2023-10-09T11:48:16;11.00;10.00;8.00
50866;PMS7003;36839;51.946;21.002;2023-10-09T11:51:15;13.00;10.00;7.00
50866;PMS7003;36839;51.946;21.002;2023-10-09T11:53:46;9.00;7.50;6.00
50866;PMS7003;36839;51.946;21.002;2023-10-09T11:56:18;12.00;10.00;8.50
50866;PMS7003;36839;51.946;21.002;2023-10-09T11:58:47;11.33;9.00;7.00
50866;PMS7003;36839;51.946;21.002;2023-10-09T12:01:21;11.50;8.50;6.00
50866;PMS7003;36839;51.946;21.002;2023-10-09T12:03:57;12.00;12.00;10.00
50866;PMS7003;36839;51.946;21.002;2023-10-09T12:06:26;9.50;9.50;7.50
50866;PMS7003;36839;51.946;21.002;2023-10-09T12:09:02;13.00;10.00;7.00
50866;PMS7003;36839;51.946;21.002;2023-10-09T12:11:31;10.50;7.00;6.00
50866;PMS7003;36839;51.946;21.002;2023-10-09T12:13:58;15.00;11.00;7.00
50866;PMS7003;36839;51.946;21.002;2023-10-09T12:16:27;4.00;4.00;3.00
50866;PMS7003;36839;51.946;21.002;2023-10-09T12:18:57;11.00;9.50;7.00
50866;PMS7003;36839;51.946;21.002;2023-10-09T12:21:24;9.00;8.00;7.00
50866;PMS7003;36839;51.946;21.002;2023-10-09T12:23:54;9.00;8.00;7.00
50866;PMS7003;36839;51.946;21.002;2023-10-09T12:26:23;17.00;11.00;9.00
50866;PMS7003;36839;51.946;21.002;2023-10-09T12:28:52;13.00;11.00;9.00
50866;PMS7003;36839;51.946;21.002;2023-10-09T12:33:47;10.50;10.00;8.00
50866;PMS7003;36839;51.946;21.002;2023-10-09T12:36:16;13.00;12.00;9.00
50866;PMS7003;36839;51.946;21.002;2023-10-09T12:38:46;10.00;9.00;7.00
50866;PMS7003;36839;51.946;21.002;2023-10-09T12:41:20;18.00;13.00;10.00
50866;PMS7003;36839;51.946;21.002;2023-10-09T12:43:59;16.50;13.00;11.00
50866;PMS7003;36839;51.946;21.002;2023-10-09T12:46:27;15.00;15.00;11.00
50866;PMS7003;36839;51.946;21.002;2023-10-09T12:56:54;17.00;13.00;10.00
50866;PMS7003;36839;51.946;21.002;2023-10-09T12:59:23;21.00;18.00;13.00
50866;PMS7003;36839;51.946;21.002;2023-10-09T13:01:51;19.67;18.67;11.67
50866;PMS7003;36839;51.946;21.002;2023-10-09T13:04:24;20.00;16.00;12.00
50866;PMS7003;36839;51.946;21.002;2023-10-09T13:06:58;19.50;15.50;12.50
50866;PMS7003;36839;51.946;21.002;2023-10-09T13:09:29;21.00;15.00;12.00
50866;PMS7003;36839;51.946;21.002;2023-10-09T13:12:03;15.00;13.00;10.50
50866;PMS7003;36839;51.946;21.002;2023-10-09T13:14:33;16.50;14.00;10.50
50866;PMS7003;36839;51.946;21.002;2023-10-09T13:17:01;20.00;19.00;13.00
50866;PMS7003;36839;51.946;21.002;2023-10-09T13:19:36;37.00;31.50;22.50
50866;PMS7003;36839;51.946;21.002;2023-10-09T13:22:03;33.00;26.00;19.00
50866;PMS7003;36839;51.946;21.002;2023-10-09T13:24:30;15.00;15.00;11.00
50866;PMS7003;36839;51.946;21.002;2023-10-09T13:26:57;23.50;20.00;15.00
50866;PMS7003;36839;51.946;21.002;2023-10-09T13:29:31;21.50;19.00;12.00
50866;PMS7003;36839;51.946;21.002;2023-10-09T13:32:00;22.67;18.00;13.33
50866;PMS7003;36839;51.946;21.002;2023-10-09T13:34:29;23.00;21.00;17.00
50866;PMS7003;36839;51.946;21.002;2023-10-09T13:36:55;21.50;18.50;12.00
50866;PMS7003;36839;51.946;21.002;2023-10-09T13:39:30;18.00;18.00;13.50
50866;PMS7003;36839;51.946;21.002;2023-10-09T13:42:04;34.00;30.50;21.00
50866;PMS7003;36839;51.946;21.002;2023-10-09T13:44:34;46.00;33.50;24.50
50866;PMS7003;36839;51.946;21.002;2023-10-09T13:47:03;23.00;21.00;17.00
50866;PMS7003;36839;51.946;21.002;2023-10-09T13:49:37;25.00;23.00;15.50
50866;PMS7003;36839;51.946;21.002;2023-10-09T13:52:06;28.50;28.00;21.00
50866;PMS7003;36839;51.946;21.002;2023-10-09T13:54:34;33.00;26.00;19.00
50866;PMS7003;36839;51.946;21.002;2023-10-09T13:57:01;27.00;23.00;17.00
50866;PMS7003;36839;51.946;21.002;2023-10-09T13:59:34;32.00;29.00;18.00
50866;PMS7003;36839;51.946;21.002;2023-10-09T14:02:02;28.00;21.00;15.50
50866;PMS7003;36839;51.946;21.002;2023-10-09T14:04:36;25.00;19.00;15.00
50866;PMS7003;36839;51.946;21.002;2023-10-09T14:07:05;21.00;17.50;13.00
50866;PMS7003;36839;51.946;21.002;2023-10-09T14:09:33;30.00;23.00;17.00
50866;PMS7003;36839;51.946;21.002;2023-10-09T14:12:11;20.00;16.00;12.00
50866;PMS7003;36839;51.946;21.002;2023-10-09T14:14:42;16.50;14.50;12.00
50866;PMS7003;36839;51.946;21.002;2023-10-09T14:17:21;19.00;18.00;13.00
50866;PMS7003;36839;51.946;21.002;2023-10-09T14:19:55;29.00;23.00;15.00
50866;PMS7003;36839;51.946;21.002;2023-10-09T14:22:46;18.50;15.00;12.00
50866;PMS7003;36839;51.946;21.002;2023-10-09T14:25:18;17.50;16.00;12.00
50866;PMS7003;36839;51.946;21.002;2023-10-09T14:27:48;16.00;13.50;10.00
50866;PMS7003;36839;51.946;21.002;2023-10-09T14:30:20;23.00;17.00;13.00
50866;PMS7003;36839;51.946;21.002;2023-10-09T14:32:57;16.00;16.00;13.00
50866;PMS7003;36839;51.946;21.002;2023-10-09T14:35:26;20.67;20.67;14.67
50866;PMS7003;36839;51.946;21.002;2023-10-09T14:37:56;23.50;18.00;13.00
50866;PMS7003;36839;51.946;21.002;2023-10-09T14:40:24;16.50;16.50;12.00
50866;PMS7003;36839;51.946;21.002;2023-10-09T14:42:58;23.00;20.00;16.00
50866;PMS7003;36839;51.946;21.002;2023-10-09T14:45:24;16.00;14.00;10.00
50866;PMS7003;36839;51.946;21.002;2023-10-09T14:47:52;21.00;18.00;13.00
50866;PMS7003;36839;51.946;21.002;2023-10-09T14:50:22;17.50;16.00;11.00
50866;PMS7003;36839;51.946;21.002;2023-10-09T14:52:49;21.00;20.50;14.50
50866;PMS7003;36839;51.946;21.002;2023-10-09T14:55:19;16.00;15.00;12.00
50866;PMS7003;36839;51.946;21.002;2023-10-09T14:57:55;21.00;18.00;14.00
50866;PMS7003;36839;51.946;21.002;2023-10-09T15:00:25;22.00;17.00;11.00
50866;PMS7003;36839;51.946;21.002;2023-10-09T15:02:52;19.50;16.00;13.00
50866;PMS7003;36839;51.946;21.002;2023-10-09T15:05:20;18.50;16.50;13.00
50866;PMS7003;36839;51.946;21.002;2023-10-09T15:07:48;21.50;15.50;12.50
50866;PMS7003;36839;51.946;21.002;2023-10-09T15:10:16;20.67;17.33;12.67
50866;PMS7003;36839;51.946;21.002;2023-10-09T15:12:44;22.67;20.67;14.33